createdAt,value
2023-05-06T00:01:25.653Z,14.94
2023-05-06T00:03:52.550Z,14.91
2023-05-06T00:06:19.356Z,14.78
2023-05-06T00:08:46.681Z,14.78
2023-05-06T00:11:13.816Z,14.72
2023-05-06T00:13:41.431Z,14.93
2023-05-06T00:16:08.120Z,14.31
2023-05-06T00:18:34.687Z,14.99
2023-05-06T00:21:01.352Z,15.23
2023-05-06T00:23:28.239Z,14.78
2023-05-06T00:25:54.924Z,15.40
2023-05-06T00:28:21.560Z,15.54
2023-05-06T00:30:48.003Z,14.93
2023-05-06T00:33:14.523Z,15.81
2023-05-06T00:35:41.135Z,15.82
2023-05-06T00:38:12.825Z,16.05
2023-05-06T00:40:39.754Z,15.59
2023-05-06T00:43:06.397Z,16.09
2023-05-06T00:45:33.140Z,16.05
2023-05-06T00:48:00.296Z,16.26
2023-05-06T00:50:28.432Z,15.90
2023-05-06T00:52:56.931Z,15.67
2023-05-06T00:55:23.590Z,15.78
2023-05-06T00:57:51.879Z,16.48
2023-05-06T01:00:19.663Z,16.79
2023-05-06T01:02:49.347Z,16.55
2023-05-06T01:05:17.877Z,16.58
2023-05-06T01:08:07.482Z,16.25
2023-05-06T01:10:39.010Z,15.72
2023-05-06T01:13:12.500Z,16.53
2023-05-06T01:15:39.073Z,16.69
2023-05-06T01:18:10.833Z,16.94
2023-05-06T01:20:39.552Z,16.41
2023-05-06T01:23:12.165Z,16.68
2023-05-06T01:25:38.715Z,16.67
2023-05-06T01:28:08.548Z,16.61
2023-05-06T01:30:39.279Z,16.33
2023-05-06T01:33:19.073Z,16.68
2023-05-06T01:35:45.553Z,16.99
2023-05-06T01:38:19.116Z,17.02
2023-05-06T01:40:50.007Z,17.31
2023-05-06T01:43:19.355Z,16.59
2023-05-06T01:45:53.214Z,16.75
2023-05-06T01:48:23.021Z,17.18
2023-05-06T01:50:49.555Z,17.10
2023-05-06T01:53:16.160Z,17.26
2023-05-06T01:55:42.723Z,17.15
2023-05-06T01:58:09.218Z,17.45
2023-05-06T02:00:37.968Z,17.10
2023-05-06T02:03:04.502Z,16.77
2023-05-06T02:05:30.983Z,17.52
2023-05-06T02:07:57.519Z,16.97
2023-05-06T02:10:24.101Z,17.24
2023-05-06T02:12:51.274Z,16.75
2023-05-06T02:15:17.897Z,17.11
2023-05-06T02:17:44.731Z,17.28
2023-05-06T02:20:11.431Z,17.72
2023-05-06T02:22:38.047Z,17.68
2023-05-06T02:25:04.698Z,17.67
2023-05-06T02:27:31.261Z,17.27
2023-05-06T02:29:57.815Z,17.52
2023-05-06T02:32:24.321Z,17.91
2023-05-06T02:34:51.745Z,17.84
2023-05-06T02:37:18.299Z,17.87
2023-05-06T02:39:44.809Z,18.62
2023-05-06T02:42:14.766Z,18.03
2023-05-06T02:44:41.326Z,18.07
2023-05-06T02:47:07.890Z,18.31
2023-05-06T02:49:34.397Z,18.42
2023-05-06T02:52:00.877Z,17.79
2023-05-06T02:54:27.502Z,17.81
2023-05-06T02:56:54.066Z,18.10
2023-05-06T02:59:22.221Z,17.98
2023-05-06T03:01:48.657Z,18.22
2023-05-06T03:04:15.231Z,18.21
2023-05-06T03:06:41.740Z,17.60
2023-05-06T03:09:08.663Z,17.69
2023-05-06T03:11:35.227Z,18.02
2023-05-06T03:14:02.073Z,18.42
2023-05-06T03:16:28.630Z,18.23
2023-05-06T03:18:55.122Z,18.72
2023-05-06T03:21:21.626Z,18.77
2023-05-06T03:23:48.192Z,17.71
2023-05-06T03:26:14.655Z,17.76
2023-05-06T03:28:44.157Z,18.59
2023-05-06T03:31:10.904Z,18.09
2023-05-06T03:33:37.423Z,18.49
2023-05-06T03:36:04.461Z,17.87
2023-05-06T03:38:30.964Z,18.32
2023-05-06T03:40:57.410Z,18.40
2023-05-06T03:43:23.957Z,19.06
2023-05-06T03:45:50.614Z,18.60
2023-05-06T03:48:17.113Z,18.69
2023-05-06T03:50:43.849Z,18.69
2023-05-06T03:53:10.385Z,19.27
2023-05-06T03:55:36.907Z,19.28
2023-05-06T03:58:03.389Z,19.17
2023-05-06T04:00:29.894Z,19.36
2023-05-06T04:02:56.443Z,19.02
2023-05-06T04:05:24.298Z,19.50
2023-05-06T04:07:51.018Z,19.38
2023-05-06T04:10:17.562Z,18.57
2023-05-06T04:12:44.329Z,19.00
2023-05-06T04:15:11.304Z,18.84
2023-05-06T04:17:38.068Z,18.41
2023-05-06T04:20:06.859Z,19.30
2023-05-06T04:22:33.340Z,19.45
2023-05-06T04:25:02.428Z,19.78
2023-05-06T04:27:29.854Z,20.35
2023-05-06T04:29:56.897Z,19.47
2023-05-06T04:32:25.311Z,19.54
2023-05-06T04:34:52.256Z,19.54
2023-05-06T04:37:19.588Z,20.51
2023-05-06T04:39:47.052Z,19.87
2023-05-06T04:42:14.282Z,19.40
2023-05-06T04:44:41.450Z,19.64
2023-05-06T04:47:08.179Z,19.18
2023-05-06T04:49:35.032Z,18.66
2023-05-06T04:52:01.990Z,19.38
2023-05-06T04:54:28.516Z,19.62
2023-05-06T04:56:55.808Z,19.70
2023-05-06T04:59:22.308Z,20.06
2023-05-06T05:01:48.867Z,20.67
2023-05-06T05:04:15.480Z,21.11
2023-05-06T05:06:42.189Z,22.55
2023-05-06T05:09:10.625Z,22.56
2023-05-06T05:11:38.164Z,22.97
2023-05-06T05:14:04.995Z,22.89
2023-05-06T05:16:31.768Z,22.62
2023-05-06T05:18:58.773Z,22.88
2023-05-06T05:21:27.681Z,23.26
2023-05-06T05:23:54.221Z,23.26
2023-05-06T05:26:20.812Z,22.66
2023-05-06T05:28:47.395Z,22.12
2023-05-06T05:31:14.053Z,22.96
2023-05-06T05:33:40.814Z,22.47
2023-05-06T05:36:08.118Z,22.40
2023-05-06T05:38:34.726Z,22.70
2023-05-06T05:41:01.178Z,23.01
2023-05-06T05:43:27.742Z,22.19
2023-05-06T05:45:54.316Z,22.84
2023-05-06T05:48:20.935Z,21.89
2023-05-06T05:50:47.448Z,22.62
2023-05-06T05:53:13.900Z,22.33
2023-05-06T05:55:40.460Z,22.88
2023-05-06T05:58:06.911Z,23.22
2023-05-06T06:00:33.427Z,22.96
2023-05-06T06:03:00.142Z,22.77
2023-05-06T06:05:26.839Z,22.83
2023-05-06T06:07:53.449Z,22.93
2023-05-06T06:10:19.984Z,22.67
2023-05-06T06:12:46.901Z,22.64
2023-05-06T06:15:13.554Z,22.42
2023-05-06T06:17:40.278Z,22.93
2023-05-06T06:20:07.291Z,22.63
2023-05-06T06:22:33.935Z,23.04
2023-05-06T06:25:00.733Z,22.99
2023-05-06T06:27:27.219Z,23.19
2023-05-06T06:29:53.798Z,23.80
2023-05-06T06:32:20.394Z,23.94
2023-05-06T06:34:46.962Z,23.78
2023-05-06T06:37:13.504Z,24.04
2023-05-06T06:39:40.048Z,23.90
2023-05-06T06:42:09.340Z,24.43
2023-05-06T06:44:35.870Z,24.67
2023-05-06T06:47:03.114Z,25.66
2023-05-06T06:49:30.709Z,25.33
2023-05-06T06:51:57.612Z,25.01
2023-05-06T06:54:24.575Z,25.21
2023-05-06T06:56:54.186Z,25.07
2023-05-06T06:59:20.981Z,25.36
2023-05-06T07:01:47.770Z,25.61
2023-05-06T07:04:14.432Z,24.62
2023-05-06T07:06:41.142Z,24.64
2023-05-06T07:09:07.694Z,24.43
2023-05-06T07:11:34.204Z,24.32
2023-05-06T07:14:00.936Z,24.22
2023-05-06T07:16:27.826Z,23.90
2023-05-06T07:18:54.350Z,23.22
2023-05-06T07:21:20.867Z,23.00
2023-05-06T07:23:47.426Z,22.63
2023-05-06T07:26:13.925Z,23.13
2023-05-06T07:28:40.874Z,23.80
2023-05-06T07:31:07.716Z,23.93
2023-05-06T07:33:34.346Z,19.38
2023-05-06T07:36:00.998Z,23.14
2023-05-06T07:38:27.852Z,23.50
2023-05-06T07:40:54.433Z,23.38
2023-05-06T07:43:22.875Z,23.15
2023-05-06T07:45:49.647Z,20.90
2023-05-06T07:48:18.583Z,21.98
2023-05-06T07:50:46.291Z,22.20
2023-05-06T07:53:13.940Z,22.03
2023-05-06T07:55:40.432Z,21.14
2023-05-06T07:58:06.971Z,21.65
2023-05-06T08:00:33.492Z,18.79
2023-05-06T08:03:00.110Z,17.02
2023-05-06T08:05:26.906Z,18.04
2023-05-06T08:07:54.183Z,16.94
2023-05-06T08:10:22.192Z,16.99
2023-05-06T08:12:49.190Z,17.81
2023-05-06T08:15:16.338Z,16.95
2023-05-06T08:17:42.980Z,16.88
2023-05-06T08:20:09.706Z,15.98
2023-05-06T08:22:36.339Z,15.34
2023-05-06T08:25:02.910Z,14.52
2023-05-06T08:27:29.501Z,14.80
2023-05-06T08:29:56.280Z,16.71
2023-05-06T08:32:22.868Z,14.10
2023-05-06T08:34:49.430Z,12.58
2023-05-06T08:37:15.965Z,14.48
2023-05-06T08:39:42.556Z,13.06
2023-05-06T08:42:11.458Z,15.82
2023-05-06T08:44:38.237Z,15.26
2023-05-06T08:47:05.381Z,12.17
2023-05-06T08:49:32.030Z,11.20
2023-05-06T08:51:59.594Z,10.47
2023-05-06T08:54:26.850Z,8.96
2023-05-06T08:56:57.577Z,7.09
2023-05-06T08:59:25.525Z,4.85
2023-05-06T09:01:53.162Z,5.48
2023-05-06T09:04:19.710Z,6.40
2023-05-06T09:06:46.339Z,5.75
2023-05-06T09:09:14.840Z,6.32
2023-05-06T09:11:41.458Z,6.47
2023-05-06T09:14:07.991Z,5.58
2023-05-06T09:16:34.740Z,6.81
2023-05-06T09:19:01.349Z,7.04
2023-05-06T09:21:38.478Z,6.70
2023-05-06T09:24:06.949Z,8.89
2023-05-06T09:26:34.830Z,10.19
2023-05-06T09:29:01.926Z,9.14
2023-05-06T09:31:29.470Z,7.37
2023-05-06T09:33:56.859Z,7.39
2023-05-06T09:36:25.789Z,7.95
2023-05-06T09:38:54.011Z,8.92
2023-05-06T09:41:21.588Z,7.75
2023-05-06T09:43:49.326Z,6.29
2023-05-06T09:46:17.248Z,4.38
2023-05-06T09:48:44.960Z,3.27
2023-05-06T09:51:11.660Z,3.17
2023-05-06T09:53:38.722Z,4.90
2023-05-06T09:56:06.466Z,3.40
2023-05-06T09:58:34.179Z,3.04
2023-05-06T10:01:02.266Z,3.16
2023-05-06T10:03:29.540Z,3.26
2023-05-06T10:05:57.490Z,3.95
2023-05-06T10:08:25.029Z,5.70
2023-05-06T10:10:51.776Z,5.43
2023-05-06T10:13:20.335Z,4.86
2023-05-06T10:15:48.163Z,4.40
2023-05-06T10:18:18.806Z,4.34
2023-05-06T10:20:46.964Z,6.68
2023-05-06T10:23:27.810Z,6.29
2023-05-06T10:25:56.563Z,6.61
2023-05-06T10:28:30.412Z,7.63
2023-05-06T10:30:58.876Z,8.52
2023-05-06T10:33:27.043Z,8.59
2023-05-06T10:36:03.032Z,8.65
2023-05-06T10:38:36.248Z,8.54
2023-05-06T10:41:04.345Z,9.25
2023-05-06T10:43:32.160Z,9.00
2023-05-06T10:46:01.730Z,7.58
2023-05-06T10:48:29.090Z,7.08
2023-05-06T10:51:13.942Z,7.39
2023-05-06T10:53:59.620Z,7.62
2023-05-06T10:56:26.672Z,7.13
2023-05-06T10:58:54.958Z,8.50
2023-05-06T11:01:22.906Z,9.43
2023-05-06T11:03:50.856Z,9.38
2023-05-06T11:06:36.352Z,8.69
2023-05-06T11:09:06.482Z,8.81
2023-05-06T11:11:52.104Z,10.54
2023-05-06T11:14:26.102Z,10.99
2023-05-06T11:16:53.735Z,10.48
2023-05-06T11:19:24.712Z,10.58
2023-05-06T11:21:52.788Z,9.87
2023-05-06T11:24:43.110Z,10.27
2023-05-06T11:27:11.138Z,9.37
2023-05-06T11:29:37.991Z,10.29
2023-05-06T11:32:21.683Z,10.06
2023-05-06T11:34:48.368Z,10.21
2023-05-06T11:37:24.287Z,10.66
2023-05-06T11:39:50.800Z,8.75
2023-05-06T11:42:24.148Z,9.16
2023-05-06T11:44:50.803Z,8.06
2023-05-06T11:47:21.962Z,7.89
2023-05-06T11:49:51.268Z,7.15
2023-05-06T11:52:19.750Z,8.99
2023-05-06T11:54:47.473Z,10.68
2023-05-06T11:57:15.184Z,10.39
2023-05-06T11:59:41.841Z,9.54
2023-05-06T12:02:14.506Z,10.48
2023-05-06T12:04:46.426Z,10.90
2023-05-06T12:07:14.472Z,10.79
2023-05-06T12:09:47.157Z,10.99
2023-05-06T12:12:22.613Z,11.19
2023-05-06T12:14:50.433Z,10.82
2023-05-06T12:17:17.069Z,9.96
2023-05-06T12:19:43.747Z,10.80
2023-05-06T12:22:21.133Z,11.65
2023-05-06T12:24:48.571Z,11.78
2023-05-06T12:27:28.487Z,12.92
2023-05-06T12:29:55.123Z,13.18
2023-05-06T12:32:21.873Z,12.65
2023-05-06T12:34:48.404Z,13.40
2023-05-06T12:37:24.416Z,13.34
2023-05-06T12:39:50.989Z,13.07
2023-05-06T12:42:21.472Z,14.88
2023-05-06T12:44:48.091Z,13.98
2023-05-06T12:47:21.847Z,13.49
2023-05-06T12:49:52.635Z,14.62
2023-05-06T12:52:23.726Z,15.34
2023-05-06T12:54:50.514Z,15.32
2023-05-06T12:57:17.333Z,14.34
2023-05-06T12:59:45.722Z,14.39
2023-05-06T13:02:12.409Z,13.69
2023-05-06T13:04:39.482Z,13.00
2023-05-06T13:07:06.395Z,14.05
2023-05-06T13:09:33.364Z,13.72
2023-05-06T13:11:59.940Z,12.92
2023-05-06T13:14:26.649Z,13.01
2023-05-06T13:16:53.251Z,11.62
2023-05-06T13:19:31.678Z,9.84
2023-05-06T13:22:00.457Z,10.32
2023-05-06T13:24:27.525Z,10.32
2023-05-06T13:26:54.035Z,11.83
2023-05-06T13:29:20.706Z,11.58
2023-05-06T13:31:47.278Z,11.35
2023-05-06T13:34:13.842Z,11.85
2023-05-06T13:36:40.361Z,13.07
2023-05-06T13:39:06.989Z,11.43
2023-05-06T13:41:33.679Z,9.90
2023-05-06T13:44:00.418Z,10.12
2023-05-06T13:46:27.411Z,9.82
2023-05-06T13:48:54.021Z,9.72
2023-05-06T13:51:20.542Z,8.69
2023-05-06T13:53:47.427Z,10.54
2023-05-06T13:56:14.234Z,10.71
2023-05-06T13:58:40.822Z,8.62
2023-05-06T14:01:07.323Z,8.27
2023-05-06T14:03:33.940Z,8.67
2023-05-06T14:06:01.298Z,7.58
2023-05-06T14:08:27.880Z,7.58
2023-05-06T14:10:54.723Z,7.85
2023-05-06T14:13:21.565Z,8.08
2023-05-06T14:15:48.307Z,8.02
2023-05-06T14:18:14.874Z,7.90
2023-05-06T14:20:41.425Z,7.70
2023-05-06T14:23:08.213Z,7.16
2023-05-06T14:25:34.788Z,7.58
2023-05-06T14:28:01.435Z,7.62
2023-05-06T14:30:28.206Z,7.56
2023-05-06T14:32:54.841Z,9.00
2023-05-06T14:35:21.432Z,7.88
2023-05-06T14:37:48.063Z,8.13
2023-05-06T14:40:15.233Z,8.53
2023-05-06T14:42:41.692Z,8.90
2023-05-06T14:45:08.782Z,9.64
2023-05-06T14:47:35.931Z,10.10
2023-05-06T14:50:02.644Z,9.82
2023-05-06T14:52:29.256Z,9.77
2023-05-06T14:54:55.991Z,9.89
2023-05-06T14:57:23.853Z,8.82
2023-05-06T14:59:51.823Z,9.11
2023-05-06T15:02:18.358Z,10.94
2023-05-06T15:04:45.898Z,10.23
2023-05-06T15:07:12.541Z,10.38
2023-05-06T15:09:40.089Z,10.78
2023-05-06T15:12:06.784Z,11.60
2023-05-06T15:14:33.400Z,10.73
2023-05-06T15:17:00.176Z,10.67
2023-05-06T15:19:27.018Z,11.10
2023-05-06T15:21:53.585Z,11.06
2023-05-06T15:24:20.537Z,10.68
2023-05-06T15:26:47.013Z,10.61
2023-05-06T15:29:13.665Z,9.55
2023-05-06T15:31:41.087Z,10.48
2023-05-06T15:34:09.578Z,9.91
2023-05-06T15:36:36.224Z,9.87
2023-05-06T15:39:03.359Z,9.91
2023-05-06T15:41:35.212Z,10.82
2023-05-06T15:44:03.605Z,9.77
2023-05-06T15:46:31.394Z,10.84
2023-05-06T15:49:17.837Z,10.92
2023-05-06T15:51:44.470Z,10.01
2023-05-06T15:54:11.109Z,9.88
2023-05-06T15:56:40.898Z,9.67
2023-05-06T15:59:08.352Z,8.64
2023-05-06T16:02:04.595Z,7.87
2023-05-06T16:04:22.186Z,8.70
2023-05-06T16:06:49.457Z,8.05
2023-05-06T16:09:16.109Z,8.42
2023-05-06T16:11:42.769Z,7.39
2023-05-06T16:14:09.321Z,8.02
2023-05-06T16:16:36.123Z,8.17
2023-05-06T16:19:02.775Z,8.87
2023-05-06T16:21:29.321Z,8.64
2023-05-06T16:23:55.972Z,8.28
2023-05-06T16:26:22.707Z,8.70
2023-05-06T16:28:49.227Z,8.12
2023-05-06T16:31:16.080Z,7.64
2023-05-06T16:33:42.695Z,8.09
2023-05-06T16:36:09.335Z,8.18
2023-05-06T16:38:36.607Z,8.77
2023-05-06T16:41:03.228Z,17.86
2023-05-06T16:43:29.705Z,11.31
2023-05-06T16:45:56.294Z,12.05
2023-05-06T16:48:23.020Z,8.80
2023-05-06T16:50:49.552Z,8.76
2023-05-06T16:53:17.359Z,8.62
2023-05-06T16:55:48.614Z,9.32
2023-05-06T16:58:15.415Z,9.71
2023-05-06T17:00:42.127Z,9.94
2023-05-06T17:03:08.851Z,9.29
2023-05-06T17:05:36.461Z,13.53
2023-05-06T17:08:06.899Z,20.53
2023-05-06T17:10:33.776Z,20.53
2023-05-06T17:13:00.419Z,21.87
2023-05-06T17:15:26.909Z,20.67
2023-05-06T17:17:53.674Z,19.42
2023-05-06T17:20:20.272Z,20.31
2023-05-06T17:22:46.895Z,20.13
2023-05-06T17:25:13.504Z,21.00
2023-05-06T17:27:40.082Z,19.41
2023-05-06T17:30:07.012Z,21.58
2023-05-06T17:32:33.596Z,21.22
2023-05-06T17:35:00.176Z,20.92
2023-05-06T17:37:27.063Z,21.51
2023-05-06T17:39:54.614Z,20.77
2023-05-06T17:42:21.139Z,19.54
2023-05-06T17:44:48.112Z,21.99
2023-05-06T17:47:15.539Z,22.76
2023-05-06T17:49:42.218Z,20.03
2023-05-06T17:52:08.737Z,19.17
2023-05-06T17:54:36.540Z,18.63
2023-05-06T17:57:03.675Z,18.01
2023-05-06T17:59:30.560Z,16.86
2023-05-06T18:01:57.151Z,18.59
2023-05-06T18:04:23.779Z,19.51
2023-05-06T18:06:50.483Z,19.40
2023-05-06T18:09:17.234Z,18.30
2023-05-06T18:11:44.014Z,17.51
2023-05-06T18:14:11.418Z,18.72
2023-05-06T18:16:38.248Z,20.20
2023-05-06T18:19:05.249Z,17.76
2023-05-06T18:21:33.996Z,17.62
2023-05-06T18:24:10.261Z,17.44
2023-05-06T18:26:45.255Z,17.74
2023-05-06T18:29:12.688Z,18.26
2023-05-06T18:31:39.443Z,17.54
2023-05-06T18:34:06.065Z,17.72
2023-05-06T18:36:32.741Z,17.04
2023-05-06T18:38:59.299Z,15.35
2023-05-06T18:41:25.927Z,13.91
2023-05-06T18:43:52.650Z,14.21
2023-05-06T18:46:19.307Z,14.03
2023-05-06T18:48:45.927Z,14.30
2023-05-06T18:51:14.011Z,15.43
2023-05-06T18:53:41.092Z,16.05
2023-05-06T18:56:08.263Z,15.44
2023-05-06T18:58:37.024Z,14.29
2023-05-06T19:01:04.669Z,13.74
2023-05-06T19:03:33.345Z,14.21
2023-05-06T19:06:01.246Z,14.16
2023-05-06T19:08:28.056Z,14.17
2023-05-06T19:10:54.884Z,13.87
2023-05-06T19:13:21.900Z,14.24
2023-05-06T19:15:48.564Z,13.60
2023-05-06T19:18:15.325Z,13.87
2023-05-06T19:20:42.154Z,14.65
2023-05-06T19:23:08.932Z,14.60
2023-05-06T19:25:37.051Z,14.41
2023-05-06T19:28:04.515Z,14.80
2023-05-06T19:30:32.486Z,14.87
2023-05-06T19:32:59.895Z,15.16
2023-05-06T19:35:26.504Z,15.81
2023-05-06T19:37:53.344Z,16.68
2023-05-06T19:40:19.962Z,16.95
2023-05-06T19:42:46.526Z,16.80
2023-05-06T19:45:13.565Z,16.37
2023-05-06T19:47:40.505Z,16.78
2023-05-06T19:50:07.462Z,16.65
2023-05-06T19:52:34.681Z,16.48
2023-05-06T19:55:04.326Z,16.75
2023-05-06T19:57:31.842Z,16.14
2023-05-06T19:59:58.377Z,15.84
2023-05-06T20:02:25.239Z,16.50
2023-05-06T20:04:51.876Z,16.55
2023-05-06T20:07:20.915Z,16.05
2023-05-06T20:09:47.631Z,15.46
2023-05-06T20:12:14.331Z,15.71
2023-05-06T20:14:41.634Z,14.43
2023-05-06T20:17:08.353Z,14.36
2023-05-06T20:19:34.970Z,14.29
2023-05-06T20:22:01.824Z,14.06
2023-05-06T20:24:29.480Z,13.32
2023-05-06T20:26:56.476Z,14.21
2023-05-06T20:29:23.089Z,14.00
2023-05-06T20:31:49.772Z,13.41
2023-05-06T20:34:16.415Z,13.92
2023-05-06T20:36:43.057Z,14.99
2023-05-06T20:39:12.879Z,14.49
2023-05-06T20:41:39.506Z,14.92
2023-05-06T20:44:06.282Z,15.63
2023-05-06T20:46:33.113Z,15.77
2023-05-06T20:49:00.211Z,15.73
2023-05-06T20:51:27.826Z,15.42
2023-05-06T20:53:55.215Z,15.68
2023-05-06T20:56:25.702Z,14.79
2023-05-06T20:58:53.060Z,14.46
2023-05-06T21:01:20.967Z,13.74
2023-05-06T21:03:48.335Z,13.21
2023-05-06T21:06:18.727Z,12.91
2023-05-06T21:08:46.245Z,12.99
2023-05-06T21:11:13.082Z,12.57
2023-05-06T21:13:39.856Z,12.13
2023-05-06T21:16:06.556Z,11.82
2023-05-06T21:18:33.245Z,12.23
2023-05-06T21:20:59.886Z,12.70
2023-05-06T21:23:26.562Z,11.70
2023-05-06T21:25:53.104Z,11.80
2023-05-06T21:28:19.643Z,11.94
2023-05-06T21:30:46.241Z,11.71
2023-05-06T21:33:13.137Z,11.82
2023-05-06T21:35:39.597Z,11.53
2023-05-06T21:38:07.211Z,11.29
2023-05-06T21:40:33.774Z,12.13
2023-05-06T21:43:00.329Z,11.54
2023-05-06T21:45:27.109Z,11.23
2023-05-06T21:47:53.789Z,11.57
2023-05-06T21:50:20.412Z,11.68
2023-05-06T21:52:47.100Z,11.96
2023-05-06T21:55:13.930Z,12.45
2023-05-06T21:57:40.537Z,11.82
2023-05-06T22:00:11.988Z,12.62
2023-05-06T22:02:40.120Z,12.43
2023-05-06T22:05:07.249Z,12.24
2023-05-06T22:07:33.935Z,12.97
2023-05-06T22:10:00.540Z,13.05
2023-05-06T22:12:27.595Z,12.83
2023-05-06T22:14:54.195Z,12.48
2023-05-06T22:17:22.152Z,12.34
2023-05-06T22:19:48.864Z,12.59
2023-05-06T22:22:15.929Z,13.23
2023-05-06T22:24:42.705Z,13.95
2023-05-06T22:27:09.183Z,14.37
2023-05-06T22:29:36.057Z,13.83
2023-05-06T22:32:03.326Z,14.34
2023-05-06T22:34:30.072Z,14.01
2023-05-06T22:36:58.404Z,14.26
2023-05-06T22:39:27.222Z,14.06
2023-05-06T22:41:53.819Z,14.24
2023-05-06T22:44:20.994Z,14.98
2023-05-06T22:46:47.632Z,15.01
2023-05-06T22:49:15.924Z,15.52
2023-05-06T22:51:42.771Z,16.18
2023-05-06T22:54:09.343Z,16.26
2023-05-06T22:56:36.116Z,16.04
2023-05-06T22:59:02.765Z,16.36
2023-05-06T23:01:32.895Z,16.68
2023-05-06T23:03:59.612Z,18.10
2023-05-06T23:06:30.941Z,18.54
2023-05-06T23:08:57.913Z,17.84
2023-05-06T23:11:24.711Z,18.32
2023-05-06T23:13:51.298Z,18.07
2023-05-06T23:16:18.067Z,18.29
2023-05-06T23:18:45.695Z,18.48
2023-05-06T23:21:12.650Z,18.50
2023-05-06T23:23:39.332Z,18.55
2023-05-06T23:26:06.007Z,19.52
2023-05-06T23:28:32.509Z,19.14
2023-05-06T23:30:59.189Z,19.53
2023-05-06T23:33:25.935Z,19.56
2023-05-06T23:35:52.472Z,20.31
2023-05-06T23:38:19.063Z,19.91
2023-05-06T23:40:45.906Z,20.07
2023-05-06T23:43:12.453Z,19.57
2023-05-06T23:45:39.114Z,21.47
2023-05-06T23:48:05.896Z,20.72
2023-05-06T23:50:32.460Z,22.83
2023-05-06T23:52:59.106Z,21.88
2023-05-06T23:55:28.520Z,21.33
2023-05-06T23:57:55.361Z,23.30
